sensor_id;sensor_type;location;lat;lon;timestamp;temperature;humidity
16635;DHT22;8431;52.458;9.998;2024-01-15T00:00:50;1.20;98.90
16635;DHT22;8431;52.458;9.998;2024-01-15T00:03:17;1.20;98.90
16635;DHT22;8431;52.458;9.998;2024-01-15T00:05:44;1.20;98.80
16635;DHT22;8431;52.458;9.998;2024-01-15T00:08:12;1.20;99.00
16635;DHT22;8431;52.458;9.998;2024-01-15T00:10:43;1.20;99.20
16635;DHT22;8431;52.458;9.998;2024-01-15T00:13:09;1.20;98.90
16635;DHT22;8431;52.458;9.998;2024-01-15T00:15:36;1.20;98.70
16635;DHT22;8431;52.458;9.998;2024-01-15T00:18:03;1.20;98.80
16635;DHT22;8431;52.458;9.998;2024-01-15T00:20:30;1.20;98.70
16635;DHT22;8431;52.458;9.998;2024-01-15T00:22:57;1.10;98.50
16635;DHT22;8431;52.458;9.998;2024-01-15T00:25:25;1.20;98.30
16635;DHT22;8431;52.458;9.998;2024-01-15T00:27:52;1.20;98.30
16635;DHT22;8431;52.458;9.998;2024-01-15T00:30:19;1.10;98.30
16635;DHT22;8431;52.458;9.998;2024-01-15T00:32:46;1.10;98.60
16635;DHT22;8431;52.458;9.998;2024-01-15T00:35:12;1.00;99.00
16635;DHT22;8431;52.458;9.998;2024-01-15T00:37:39;0.80;99.40
16635;DHT22;8431;52.458;9.998;2024-01-15T00:40:07;0.80;99.00
16635;DHT22;8431;52.458;9.998;2024-01-15T00:42:43;0.70;99.20
16635;DHT22;8431;52.458;9.998;2024-01-15T00:45:10;0.70;99.00
16635;DHT22;8431;52.458;9.998;2024-01-15T00:47:37;0.70;98.80
16635;DHT22;8431;52.458;9.998;2024-01-15T00:50:04;0.80;98.80
16635;DHT22;8431;52.458;9.998;2024-01-15T00:52:31;0.80;98.50
16635;DHT22;8431;52.458;9.998;2024-01-15T00:54:58;0.80;98.40
16635;DHT22;8431;52.458;9.998;2024-01-15T00:57:25;0.80;98.40
16635;DHT22;8431;52.458;9.998;2024-01-15T00:59:53;0.80;98.30
16635;DHT22;8431;52.458;9.998;2024-01-15T01:02:20;0.80;98.30
16635;DHT22;8431;52.458;9.998;2024-01-15T01:04:46;0.80;98.20
16635;DHT22;8431;52.458;9.998;2024-01-15T01:07:13;0.80;98.20
16635;DHT22;8431;52.458;9.998;2024-01-15T01:09:40;0.90;98.10
16635;DHT22;8431;52.458;9.998;2024-01-15T01:12:07;1.00;97.90
16635;DHT22;8431;52.458;9.998;2024-01-15T01:14:34;1.00;98.00
16635;DHT22;8431;52.458;9.998;2024-01-15T01:17:02;1.00;97.60
16635;DHT22;8431;52.458;9.998;2024-01-15T01:19:29;1.10;97.70
16635;DHT22;8431;52.458;9.998;2024-01-15T01:21:56;1.10;97.50
16635;DHT22;8431;52.458;9.998;2024-01-15T01:24:22;1.00;97.60
16635;DHT22;8431;52.458;9.998;2024-01-15T01:26:49;1.10;97.40
16635;DHT22;8431;52.458;9.998;2024-01-15T01:29:16;1.10;97.40
16635;DHT22;8431;52.458;9.998;2024-01-15T01:31:43;1.20;97.20
16635;DHT22;8431;52.458;9.998;2024-01-15T01:34:14;1.20;97.10
16635;DHT22;8431;52.458;9.998;2024-01-15T01:36:41;1.10;97.20
16635;DHT22;8431;52.458;9.998;2024-01-15T01:39:08;1.10;97.10
16635;DHT22;8431;52.458;9.998;2024-01-15T01:41:35;1.10;96.80
16635;DHT22;8431;52.458;9.998;2024-01-15T01:44:02;1.20;96.50
16635;DHT22;8431;52.458;9.998;2024-01-15T01:46:29;1.20;96.50
16635;DHT22;8431;52.458;9.998;2024-01-15T01:48:58;1.20;96.30
16635;DHT22;8431;52.458;9.998;2024-01-15T01:51:33;1.30;96.30
16635;DHT22;8431;52.458;9.998;2024-01-15T01:54:01;1.30;96.20
16635;DHT22;8431;52.458;9.998;2024-01-15T01:56:28;1.30;96.20
16635;DHT22;8431;52.458;9.998;2024-01-15T01:58:55;1.30;96.30
16635;DHT22;8431;52.458;9.998;2024-01-15T02:01:22;1.20;96.40
16635;DHT22;8431;52.458;9.998;2024-01-15T02:03:49;1.20;96.30
16635;DHT22;8431;52.458;9.998;2024-01-15T02:06:15;1.20;96.20
16635;DHT22;8431;52.458;9.998;2024-01-15T02:08:44;1.30;96.00
16635;DHT22;8431;52.458;9.998;2024-01-15T02:11:10;1.40;95.60
16635;DHT22;8431;52.458;9.998;2024-01-15T02:13:38;1.30;95.80
16635;DHT22;8431;52.458;9.998;2024-01-15T02:16:06;1.40;95.70
16635;DHT22;8431;52.458;9.998;2024-01-15T02:18:40;1.50;95.40
16635;DHT22;8431;52.458;9.998;2024-01-15T02:21:07;1.50;95.60
16635;DHT22;8431;52.458;9.998;2024-01-15T02:23:35;1.40;95.60
16635;DHT22;8431;52.458;9.998;2024-01-15T02:26:02;1.50;95.50
16635;DHT22;8431;52.458;9.998;2024-01-15T02:28:29;1.50;95.40
16635;DHT22;8431;52.458;9.998;2024-01-15T02:30:58;1.50;95.50
16635;DHT22;8431;52.458;9.998;2024-01-15T02:33:25;1.50;95.40
16635;DHT22;8431;52.458;9.998;2024-01-15T02:35:51;1.50;95.40
16635;DHT22;8431;52.458;9.998;2024-01-15T02:38:18;1.50;95.20
16635;DHT22;8431;52.458;9.998;2024-01-15T02:40:47;1.50;95.30
16635;DHT22;8431;52.458;9.998;2024-01-15T02:43:13;1.50;95.40
16635;DHT22;8431;52.458;9.998;2024-01-15T02:45:40;1.50;95.30
16635;DHT22;8431;52.458;9.998;2024-01-15T02:48:07;1.50;95.20
16635;DHT22;8431;52.458;9.998;2024-01-15T02:50:34;1.60;95.20
16635;DHT22;8431;52.458;9.998;2024-01-15T02:53:01;1.50;95.40
16635;DHT22;8431;52.458;9.998;2024-01-15T02:55:28;1.60;95.20
16635;DHT22;8431;52.458;9.998;2024-01-15T02:57:57;1.60;95.10
16635;DHT22;8431;52.458;9.998;2024-01-15T03:00:24;1.60;94.90
16635;DHT22;8431;52.458;9.998;2024-01-15T03:02:51;1.50;95.10
16635;DHT22;8431;52.458;9.998;2024-01-15T03:05:18;1.60;94.90
16635;DHT22;8431;52.458;9.998;2024-01-15T03:07:45;1.60;94.90
16635;DHT22;8431;52.458;9.998;2024-01-15T03:10:12;1.60;95.00
16635;DHT22;8431;52.458;9.998;2024-01-15T03:12:39;1.50;95.10
16635;DHT22;8431;52.458;9.998;2024-01-15T03:15:07;1.60;95.10
16635;DHT22;8431;52.458;9.998;2024-01-15T03:17:34;1.60;95.00
16635;DHT22;8431;52.458;9.998;2024-01-15T03:20:01;1.70;94.70
16635;DHT22;8431;52.458;9.998;2024-01-15T03:22:28;1.70;94.70
16635;DHT22;8431;52.458;9.998;2024-01-15T03:24:55;1.70;94.40
16635;DHT22;8431;52.458;9.998;2024-01-15T03:27:22;1.70;94.80
16635;DHT22;8431;52.458;9.998;2024-01-15T03:29:49;1.70;94.80
16635;DHT22;8431;52.458;9.998;2024-01-15T03:32:17;1.60;94.80
16635;DHT22;8431;52.458;9.998;2024-01-15T03:34:46;1.60;94.90
16635;DHT22;8431;52.458;9.998;2024-01-15T03:37:13;1.60;95.30
16635;DHT22;8431;52.458;9.998;2024-01-15T03:39:40;1.40;96.50
16635;DHT22;8431;52.458;9.998;2024-01-15T03:42:07;1.30;96.40
16635;DHT22;8431;52.458;9.998;2024-01-15T03:44:34;1.30;96.10
16635;DHT22;8431;52.458;9.998;2024-01-15T03:47:01;1.40;95.80
16635;DHT22;8431;52.458;9.998;2024-01-15T03:49:29;1.30;96.10
16635;DHT22;8431;52.458;9.998;2024-01-15T03:51:56;1.30;96.20
16635;DHT22;8431;52.458;9.998;2024-01-15T03:54:22;1.30;96.50
16635;DHT22;8431;52.458;9.998;2024-01-15T03:56:49;1.20;96.80
16635;DHT22;8431;52.458;9.998;2024-01-15T03:59:16;1.20;96.80
16635;DHT22;8431;52.458;9.998;2024-01-15T04:01:48;1.30;96.80
16635;DHT22;8431;52.458;9.998;2024-01-15T04:04:15;1.30;96.60
16635;DHT22;8431;52.458;9.998;2024-01-15T04:06:44;1.40;96.00
16635;DHT22;8431;52.458;9.998;2024-01-15T04:09:12;1.40;96.00
16635;DHT22;8431;52.458;9.998;2024-01-15T04:11:39;1.40;96.00
16635;DHT22;8431;52.458;9.998;2024-01-15T04:14:06;1.40;96.00
16635;DHT22;8431;52.458;9.998;2024-01-15T04:16:32;1.50;95.70
16635;DHT22;8431;52.458;9.998;2024-01-15T04:18:59;1.50;95.60
16635;DHT22;8431;52.458;9.998;2024-01-15T04:21:26;1.50;95.50
16635;DHT22;8431;52.458;9.998;2024-01-15T04:23:54;1.40;95.80
16635;DHT22;8431;52.458;9.998;2024-01-15T04:26:21;1.40;95.80
16635;DHT22;8431;52.458;9.998;2024-01-15T04:28:48;1.40;95.90
16635;DHT22;8431;52.458;9.998;2024-01-15T04:31:21;1.40;96.00
16635;DHT22;8431;52.458;9.998;2024-01-15T04:33:48;1.40;96.30
16635;DHT22;8431;52.458;9.998;2024-01-15T04:36:18;1.30;96.50
16635;DHT22;8431;52.458;9.998;2024-01-15T04:38:45;1.30;96.60
16635;DHT22;8431;52.458;9.998;2024-01-15T04:41:14;1.30;96.40
16635;DHT22;8431;52.458;9.998;2024-01-15T04:43:42;1.30;96.40
16635;DHT22;8431;52.458;9.998;2024-01-15T04:46:09;1.30;96.20
16635;DHT22;8431;52.458;9.998;2024-01-15T04:48:36;1.30;96.50
16635;DHT22;8431;52.458;9.998;2024-01-15T04:51:04;1.30;96.70
16635;DHT22;8431;52.458;9.998;2024-01-15T04:53:31;1.20;97.00
16635;DHT22;8431;52.458;9.998;2024-01-15T04:55:58;1.10;97.50
16635;DHT22;8431;52.458;9.998;2024-01-15T04:58:26;1.00;98.00
16635;DHT22;8431;52.458;9.998;2024-01-15T05:00:53;1.00;98.20
16635;DHT22;8431;52.458;9.998;2024-01-15T05:03:20;0.90;98.40
16635;DHT22;8431;52.458;9.998;2024-01-15T05:05:47;0.90;98.20
16635;DHT22;8431;52.458;9.998;2024-01-15T05:08:17;0.90;98.00
16635;DHT22;8431;52.458;9.998;2024-01-15T05:10:44;1.00;97.80
16635;DHT22;8431;52.458;9.998;2024-01-15T05:13:11;0.90;97.80
16635;DHT22;8431;52.458;9.998;2024-01-15T05:15:39;1.00;97.80
16635;DHT22;8431;52.458;9.998;2024-01-15T05:18:06;1.10;97.40
16635;DHT22;8431;52.458;9.998;2024-01-15T05:20:33;1.10;97.10
16635;DHT22;8431;52.458;9.998;2024-01-15T05:23:00;1.20;97.10
16635;DHT22;8431;52.458;9.998;2024-01-15T05:25:26;1.20;96.80
16635;DHT22;8431;52.458;9.998;2024-01-15T05:27:53;1.30;96.80
16635;DHT22;8431;52.458;9.998;2024-01-15T05:30:20;1.30;96.80
16635;DHT22;8431;52.458;9.998;2024-01-15T05:32:48;1.30;96.80
16635;DHT22;8431;52.458;9.998;2024-01-15T05:35:15;1.30;97.00
16635;DHT22;8431;52.458;9.998;2024-01-15T05:37:43;1.20;97.10
16635;DHT22;8431;52.458;9.998;2024-01-15T05:40:11;1.10;97.30
16635;DHT22;8431;52.458;9.998;2024-01-15T05:42:38;1.20;97.20
16635;DHT22;8431;52.458;9.998;2024-01-15T05:45:06;1.20;96.90
16635;DHT22;8431;52.458;9.998;2024-01-15T05:47:33;1.30;96.90
16635;DHT22;8431;52.458;9.998;2024-01-15T05:50:02;1.30;96.70
16635;DHT22;8431;52.458;9.998;2024-01-15T05:52:29;1.40;96.30
16635;DHT22;8431;52.458;9.998;2024-01-15T05:54:56;1.40;96.50
16635;DHT22;8431;52.458;9.998;2024-01-15T05:57:23;1.30;96.60
16635;DHT22;8431;52.458;9.998;2024-01-15T05:59:49;1.30;96.50
16635;DHT22;8431;52.458;9.998;2024-01-15T06:02:16;1.20;96.80
16635;DHT22;8431;52.458;9.998;2024-01-15T06:04:43;1.00;97.60
16635;DHT22;8431;52.458;9.998;2024-01-15T06:07:11;0.90;98.10
16635;DHT22;8431;52.458;9.998;2024-01-15T06:09:38;0.90;98.20
16635;DHT22;8431;52.458;9.998;2024-01-15T06:12:06;1.00;98.10
16635;DHT22;8431;52.458;9.998;2024-01-15T06:14:33;1.00;98.10
16635;DHT22;8431;52.458;9.998;2024-01-15T06:17:00;0.90;98.10
16635;DHT22;8431;52.458;9.998;2024-01-15T06:19:26;1.00;98.20
16635;DHT22;8431;52.458;9.998;2024-01-15T06:21:53;1.00;98.20
16635;DHT22;8431;52.458;9.998;2024-01-15T06:24:21;1.00;98.40
16635;DHT22;8431;52.458;9.998;2024-01-15T06:26:48;1.00;98.30
16635;DHT22;8431;52.458;9.998;2024-01-15T06:29:15;1.00;98.40
16635;DHT22;8431;52.458;9.998;2024-01-15T06:31:43;0.90;98.50
16635;DHT22;8431;52.458;9.998;2024-01-15T06:34:09;1.00;98.40
16635;DHT22;8431;52.458;9.998;2024-01-15T06:36:36;0.90;98.50
16635;DHT22;8431;52.458;9.998;2024-01-15T06:39:03;1.00;98.30
16635;DHT22;8431;52.458;9.998;2024-01-15T06:41:32;1.00;98.20
16635;DHT22;8431;52.458;9.998;2024-01-15T06:43:59;1.10;98.30
16635;DHT22;8431;52.458;9.998;2024-01-15T06:46:25;1.10;98.00
16635;DHT22;8431;52.458;9.998;2024-01-15T06:48:52;1.10;98.10
16635;DHT22;8431;52.458;9.998;2024-01-15T06:51:19;1.10;98.20
16635;DHT22;8431;52.458;9.998;2024-01-15T06:53:46;1.10;98.00
16635;DHT22;8431;52.458;9.998;2024-01-15T06:56:12;1.20;98.10
16635;DHT22;8431;52.458;9.998;2024-01-15T06:58:41;1.10;98.10
16635;DHT22;8431;52.458;9.998;2024-01-15T07:01:07;1.10;98.10
16635;DHT22;8431;52.458;9.998;2024-01-15T07:03:34;1.00;98.20
16635;DHT22;8431;52.458;9.998;2024-01-15T07:06:01;1.00;98.40
16635;DHT22;8431;52.458;9.998;2024-01-15T07:08:28;1.00;98.40
16635;DHT22;8431;52.458;9.998;2024-01-15T07:10:55;1.00;98.40
16635;DHT22;8431;52.458;9.998;2024-01-15T07:13:22;1.00;98.40
16635;DHT22;8431;52.458;9.998;2024-01-15T07:15:50;1.00;98.20
16635;DHT22;8431;52.458;9.998;2024-01-15T07:18:17;1.00;98.20
16635;DHT22;8431;52.458;9.998;2024-01-15T07:20:44;1.10;97.80
16635;DHT22;8431;52.458;9.998;2024-01-15T07:23:11;1.20;97.60
16635;DHT22;8431;52.458;9.998;2024-01-15T07:25:37;1.20;97.50
16635;DHT22;8431;52.458;9.998;2024-01-15T07:28:05;1.20;97.60
16635;DHT22;8431;52.458;9.998;2024-01-15T07:30:31;1.10;97.90
16635;DHT22;8431;52.458;9.998;2024-01-15T07:33:00;1.10;97.90
16635;DHT22;8431;52.458;9.998;2024-01-15T07:35:26;1.10;97.90
16635;DHT22;8431;52.458;9.998;2024-01-15T07:37:53;1.10;98.00
16635;DHT22;8431;52.458;9.998;2024-01-15T07:40:20;1.20;97.60
16635;DHT22;8431;52.458;9.998;2024-01-15T07:42:47;1.30;97.50
16635;DHT22;8431;52.458;9.998;2024-01-15T07:45:14;1.30;97.40
16635;DHT22;8431;52.458;9.998;2024-01-15T07:47:41;1.30;97.40
16635;DHT22;8431;52.458;9.998;2024-01-15T07:50:09;1.30;97.70
16635;DHT22;8431;52.458;9.998;2024-01-15T07:52:37;1.10;98.10
16635;DHT22;8431;52.458;9.998;2024-01-15T07:55:04;1.10;98.20
16635;DHT22;8431;52.458;9.998;2024-01-15T07:57:31;1.20;98.30
16635;DHT22;8431;52.458;9.998;2024-01-15T07:59:58;1.20;98.40
16635;DHT22;8431;52.458;9.998;2024-01-15T08:02:24;1.20;98.10
16635;DHT22;8431;52.458;9.998;2024-01-15T08:04:51;1.30;98.20
16635;DHT22;8431;52.458;9.998;2024-01-15T08:07:19;1.20;98.20
16635;DHT22;8431;52.458;9.998;2024-01-15T08:09:46;1.20;98.30
16635;DHT22;8431;52.458;9.998;2024-01-15T08:12:14;1.00;98.80
16635;DHT22;8431;52.458;9.998;2024-01-15T08:14:41;0.80;99.30
16635;DHT22;8431;52.458;9.998;2024-01-15T08:17:08;0.80;99.20
16635;DHT22;8431;52.458;9.998;2024-01-15T08:19:34;0.80;99.20
16635;DHT22;8431;52.458;9.998;2024-01-15T08:22:01;0.80;99.40
16635;DHT22;8431;52.458;9.998;2024-01-15T08:24:29;0.80;99.40
16635;DHT22;8431;52.458;9.998;2024-01-15T08:26:57;0.90;99.40
16635;DHT22;8431;52.458;9.998;2024-01-15T08:29:24;0.80;99.30
16635;DHT22;8431;52.458;9.998;2024-01-15T08:31:51;0.70;99.50
16635;DHT22;8431;52.458;9.998;2024-01-15T08:34:18;0.70;99.70
16635;DHT22;8431;52.458;9.998;2024-01-15T08:36:44;0.70;99.80
16635;DHT22;8431;52.458;9.998;2024-01-15T08:39:11;0.80;99.60
16635;DHT22;8431;52.458;9.998;2024-01-15T08:41:39;0.80;99.60
16635;DHT22;8431;52.458;9.998;2024-01-15T08:44:10;0.80;99.60
16635;DHT22;8431;52.458;9.998;2024-01-15T08:46:37;0.80;99.50
16635;DHT22;8431;52.458;9.998;2024-01-15T08:49:04;0.90;99.40
16635;DHT22;8431;52.458;9.998;2024-01-15T08:51:31;1.00;99.20
16635;DHT22;8431;52.458;9.998;2024-01-15T08:53:58;1.10;98.90
16635;DHT22;8431;52.458;9.998;2024-01-15T08:56:25;1.00;99.10
16635;DHT22;8431;52.458;9.998;2024-01-15T08:58:54;0.90;99.00
16635;DHT22;8431;52.458;9.998;2024-01-15T09:01:21;0.70;99.10
16635;DHT22;8431;52.458;9.998;2024-01-15T09:03:48;0.60;99.50
16635;DHT22;8431;52.458;9.998;2024-01-15T09:06:15;0.60;99.70
16635;DHT22;8431;52.458;9.998;2024-01-15T09:08:42;0.60;99.70
16635;DHT22;8431;52.458;9.998;2024-01-15T09:11:09;0.70;99.50
16635;DHT22;8431;52.458;9.998;2024-01-15T09:13:36;0.80;99.20
16635;DHT22;8431;52.458;9.998;2024-01-15T09:16:04;0.90;99.10
16635;DHT22;8431;52.458;9.998;2024-01-15T09:18:31;0.90;98.90
16635;DHT22;8431;52.458;9.998;2024-01-15T09:20:58;1.00;98.60
16635;DHT22;8431;52.458;9.998;2024-01-15T09:23:25;1.10;98.40
16635;DHT22;8431;52.458;9.998;2024-01-15T09:25:52;1.30;98.00
16635;DHT22;8431;52.458;9.998;2024-01-15T09:28:19;1.20;98.20
16635;DHT22;8431;52.458;9.998;2024-01-15T09:30:46;1.20;98.20
16635;DHT22;8431;52.458;9.998;2024-01-15T09:33:14;1.30;98.00
16635;DHT22;8431;52.458;9.998;2024-01-15T09:35:41;1.40;98.00
16635;DHT22;8431;52.458;9.998;2024-01-15T09:38:07;1.40;98.20
16635;DHT22;8431;52.458;9.998;2024-01-15T09:40:38;1.40;98.00
16635;DHT22;8431;52.458;9.998;2024-01-15T09:43:08;1.50;98.10
16635;DHT22;8431;52.458;9.998;2024-01-15T09:45:35;1.50;98.00
16635;DHT22;8431;52.458;9.998;2024-01-15T09:48:03;1.60;97.40
16635;DHT22;8431;52.458;9.998;2024-01-15T09:50:31;1.60;97.70
16635;DHT22;8431;52.458;9.998;2024-01-15T09:52:58;1.60;97.10
16635;DHT22;8431;52.458;9.998;2024-01-15T11:27:08;1.80;96.50
16635;DHT22;8431;52.458;9.998;2024-01-15T11:29:36;1.90;95.70
16635;DHT22;8431;52.458;9.998;2024-01-15T11:32:04;1.90;95.40
16635;DHT22;8431;52.458;9.998;2024-01-15T11:34:50;2.00;95.50
16635;DHT22;8431;52.458;9.998;2024-01-15T11:37:17;2.10;95.20
16635;DHT22;8431;52.458;9.998;2024-01-15T11:39:45;2.10;94.80
16635;DHT22;8431;52.458;9.998;2024-01-15T11:42:14;2.10;95.10
16635;DHT22;8431;52.458;9.998;2024-01-15T11:44:40;2.20;94.40
16635;DHT22;8431;52.458;9.998;2024-01-15T11:47:08;2.10;94.10
16635;DHT22;8431;52.458;9.998;2024-01-15T11:49:58;2.10;94.50
16635;DHT22;8431;52.458;9.998;2024-01-15T11:52:26;2.00;94.60
16635;DHT22;8431;52.458;9.998;2024-01-15T11:55:00;2.00;94.60
16635;DHT22;8431;52.458;9.998;2024-01-15T11:57:37;2.00;94.70
16635;DHT22;8431;52.458;9.998;2024-01-15T12:00:09;2.10;94.20
16635;DHT22;8431;52.458;9.998;2024-01-15T12:02:36;2.20;94.30
16635;DHT22;8431;52.458;9.998;2024-01-15T12:05:03;2.10;94.10
16635;DHT22;8431;52.458;9.998;2024-01-15T12:07:30;2.10;93.40
16635;DHT22;8431;52.458;9.998;2024-01-15T12:09:57;2.20;94.00
16635;DHT22;8431;52.458;9.998;2024-01-15T12:12:29;2.30;93.80
16635;DHT22;8431;52.458;9.998;2024-01-15T12:15:00;2.20;94.00
16635;DHT22;8431;52.458;9.998;2024-01-15T12:17:27;2.20;93.40
16635;DHT22;8431;52.458;9.998;2024-01-15T12:19:54;2.10;93.50
16635;DHT22;8431;52.458;9.998;2024-01-15T12:22:21;2.10;93.70
16635;DHT22;8431;52.458;9.998;2024-01-15T12:24:48;2.10;93.60
16635;DHT22;8431;52.458;9.998;2024-01-15T12:27:15;2.20;93.50
16635;DHT22;8431;52.458;9.998;2024-01-15T12:29:43;2.20;93.10
16635;DHT22;8431;52.458;9.998;2024-01-15T12:32:12;2.30;93.40
16635;DHT22;8431;52.458;9.998;2024-01-15T12:34:39;2.30;93.60
16635;DHT22;8431;52.458;9.998;2024-01-15T12:37:07;2.40;93.10
16635;DHT22;8431;52.458;9.998;2024-01-15T12:39:34;2.60;93.00
16635;DHT22;8431;52.458;9.998;2024-01-15T12:42:01;2.50;93.30
16635;DHT22;8431;52.458;9.998;2024-01-15T12:44:29;2.40;92.90
16635;DHT22;8431;52.458;9.998;2024-01-15T12:46:57;2.40;93.50
16635;DHT22;8431;52.458;9.998;2024-01-15T12:49:26;2.30;93.30
16635;DHT22;8431;52.458;9.998;2024-01-15T12:51:53;2.30;93.30
16635;DHT22;8431;52.458;9.998;2024-01-15T12:54:20;2.30;93.20
16635;DHT22;8431;52.458;9.998;2024-01-15T12:56:47;2.30;93.00
16635;DHT22;8431;52.458;9.998;2024-01-15T12:59:14;2.20;93.50
16635;DHT22;8431;52.458;9.998;2024-01-15T13:01:41;2.20;93.10
16635;DHT22;8431;52.458;9.998;2024-01-15T13:04:21;2.30;93.20
16635;DHT22;8431;52.458;9.998;2024-01-15T13:06:50;2.30;92.70
16635;DHT22;8431;52.458;9.998;2024-01-15T13:09:16;2.20;92.60
16635;DHT22;8431;52.458;9.998;2024-01-15T13:11:44;2.40;92.20
16635;DHT22;8431;52.458;9.998;2024-01-15T13:14:11;2.50;92.00
16635;DHT22;8431;52.458;9.998;2024-01-15T13:16:39;2.50;92.20
16635;DHT22;8431;52.458;9.998;2024-01-15T13:19:07;2.40;92.00
16635;DHT22;8431;52.458;9.998;2024-01-15T13:21:34;2.20;93.10
16635;DHT22;8431;52.458;9.998;2024-01-15T13:24:03;1.80;94.50
16635;DHT22;8431;52.458;9.998;2024-01-15T13:26:31;1.60;95.50
16635;DHT22;8431;52.458;9.998;2024-01-15T13:28:59;1.40;96.10
16635;DHT22;8431;52.458;9.998;2024-01-15T13:31:26;1.40;96.50
16635;DHT22;8431;52.458;9.998;2024-01-15T13:33:53;1.40;96.50
16635;DHT22;8431;52.458;9.998;2024-01-15T13:36:20;1.40;96.60
16635;DHT22;8431;52.458;9.998;2024-01-15T13:38:48;1.30;97.00
16635;DHT22;8431;52.458;9.998;2024-01-15T13:41:17;1.10;97.30
16635;DHT22;8431;52.458;9.998;2024-01-15T13:43:45;1.10;97.70
16635;DHT22;8431;52.458;9.998;2024-01-15T13:46:11;1.10;97.50
16635;DHT22;8431;52.458;9.998;2024-01-15T13:48:38;1.20;97.50
16635;DHT22;8431;52.458;9.998;2024-01-15T13:51:05;1.30;97.50
16635;DHT22;8431;52.458;9.998;2024-01-15T13:53:32;1.40;97.20
16635;DHT22;8431;52.458;9.998;2024-01-15T13:55:59;1.40;96.90
16635;DHT22;8431;52.458;9.998;2024-01-15T13:58:27;1.40;96.70
16635;DHT22;8431;52.458;9.998;2024-01-15T14:00:55;1.40;96.20
16635;DHT22;8431;52.458;9.998;2024-01-15T14:03:21;1.30;96.60
16635;DHT22;8431;52.458;9.998;2024-01-15T14:05:48;1.30;97.10
16635;DHT22;8431;52.458;9.998;2024-01-15T14:08:16;1.20;97.10
16635;DHT22;8431;52.458;9.998;2024-01-15T14:10:43;1.40;96.90
16635;DHT22;8431;52.458;9.998;2024-01-15T14:13:10;1.40;96.80
16635;DHT22;8431;52.458;9.998;2024-01-15T14:15:38;1.50;96.00
16635;DHT22;8431;52.458;9.998;2024-01-15T14:18:05;1.50;95.70
16635;DHT22;8431;52.458;9.998;2024-01-15T14:20:33;1.40;96.10
16635;DHT22;8431;52.458;9.998;2024-01-15T14:22:59;1.30;96.80
16635;DHT22;8431;52.458;9.998;2024-01-15T14:25:28;1.20;97.20
16635;DHT22;8431;52.458;9.998;2024-01-15T14:27:55;1.30;97.50
16635;DHT22;8431;52.458;9.998;2024-01-15T14:30:22;1.30;97.40
16635;DHT22;8431;52.458;9.998;2024-01-15T14:36:10;1.40;97.50
16635;DHT22;8431;52.458;9.998;2024-01-15T14:38:36;1.40;97.60
16635;DHT22;8431;52.458;9.998;2024-01-15T14:41:03;1.20;97.80
16635;DHT22;8431;52.458;9.998;2024-01-15T14:43:30;1.20;97.70
16635;DHT22;8431;52.458;9.998;2024-01-15T14:45:58;1.20;97.90
16635;DHT22;8431;52.458;9.998;2024-01-15T14:48:25;1.20;97.70
16635;DHT22;8431;52.458;9.998;2024-01-15T14:50:52;1.20;97.80
16635;DHT22;8431;52.458;9.998;2024-01-15T14:53:20;1.20;97.80
16635;DHT22;8431;52.458;9.998;2024-01-15T14:55:47;1.20;97.70
16635;DHT22;8431;52.458;9.998;2024-01-15T14:58:14;1.30;97.80
16635;DHT22;8431;52.458;9.998;2024-01-15T15:00:41;1.30;97.90
16635;DHT22;8431;52.458;9.998;2024-01-15T15:03:08;1.20;97.70
16635;DHT22;8431;52.458;9.998;2024-01-15T15:05:36;1.10;98.00
16635;DHT22;8431;52.458;9.998;2024-01-15T15:08:03;1.10;98.20
16635;DHT22;8431;52.458;9.998;2024-01-15T15:10:35;1.20;98.40
16635;DHT22;8431;52.458;9.998;2024-01-15T15:13:02;1.10;98.40
16635;DHT22;8431;52.458;9.998;2024-01-15T15:15:29;1.10;98.30
16635;DHT22;8431;52.458;9.998;2024-01-15T15:17:56;1.10;98.30
16635;DHT22;8431;52.458;9.998;2024-01-15T15:20:22;1.10;98.30
16635;DHT22;8431;52.458;9.998;2024-01-15T15:22:49;1.20;98.20
16635;DHT22;8431;52.458;9.998;2024-01-15T15:25:20;1.10;98.10
16635;DHT22;8431;52.458;9.998;2024-01-15T15:27:48;1.10;98.10
16635;DHT22;8431;52.458;9.998;2024-01-15T15:30:15;1.00;98.50
16635;DHT22;8431;52.458;9.998;2024-01-15T15:32:42;1.00;98.40
16635;DHT22;8431;52.458;9.998;2024-01-15T15:35:09;1.00;98.50
16635;DHT22;8431;52.458;9.998;2024-01-15T15:37:36;1.00;98.30
16635;DHT22;8431;52.458;9.998;2024-01-15T15:40:04;1.10;98.50
16635;DHT22;8431;52.458;9.998;2024-01-15T15:42:34;1.00;98.60
16635;DHT22;8431;52.458;9.998;2024-01-15T15:45:02;1.00;98.80
16635;DHT22;8431;52.458;9.998;2024-01-15T15:47:29;1.00;98.80
16635;DHT22;8431;52.458;9.998;2024-01-15T15:49:55;1.00;99.00
16635;DHT22;8431;52.458;9.998;2024-01-15T15:52:22;0.90;98.90
16635;DHT22;8431;52.458;9.998;2024-01-15T15:54:49;0.80;99.10
16635;DHT22;8431;52.458;9.998;2024-01-15T15:57:16;0.70;99.30
16635;DHT22;8431;52.458;9.998;2024-01-15T15:59:43;0.80;99.30
16635;DHT22;8431;52.458;9.998;2024-01-15T16:02:11;0.70;99.40
16635;DHT22;8431;52.458;9.998;2024-01-15T16:04:38;0.70;99.60
16635;DHT22;8431;52.458;9.998;2024-01-15T16:07:04;0.70;99.60
16635;DHT22;8431;52.458;9.998;2024-01-15T16:09:35;0.70;99.50
16635;DHT22;8431;52.458;9.998;2024-01-15T16:12:02;0.80;99.50
16635;DHT22;8431;52.458;9.998;2024-01-15T16:14:28;0.90;99.50
16635;DHT22;8431;52.458;9.998;2024-01-15T16:16:55;0.90;99.30
16635;DHT22;8431;52.458;9.998;2024-01-15T16:19:24;0.80;99.40
16635;DHT22;8431;52.458;9.998;2024-01-15T16:21:51;0.90;99.40
16635;DHT22;8431;52.458;9.998;2024-01-15T16:24:18;0.90;99.10
16635;DHT22;8431;52.458;9.998;2024-01-15T16:26:47;0.90;99.00
16635;DHT22;8431;52.458;9.998;2024-01-15T16:29:14;0.90;99.20
16635;DHT22;8431;52.458;9.998;2024-01-15T16:31:40;1.00;99.10
16635;DHT22;8431;52.458;9.998;2024-01-15T16:34:07;0.90;99.10
16635;DHT22;8431;52.458;9.998;2024-01-15T16:36:35;1.00;99.00
16635;DHT22;8431;52.458;9.998;2024-01-15T16:39:02;1.00;99.00
16635;DHT22;8431;52.458;9.998;2024-01-15T16:41:29;0.90;99.10
16635;DHT22;8431;52.458;9.998;2024-01-15T16:43:57;0.90;99.20
16635;DHT22;8431;52.458;9.998;2024-01-15T16:46:24;0.90;99.30
16635;DHT22;8431;52.458;9.998;2024-01-15T16:48:51;1.00;99.30
16635;DHT22;8431;52.458;9.998;2024-01-15T16:51:18;1.00;99.10
16635;DHT22;8431;52.458;9.998;2024-01-15T16:53:46;1.00;99.00
16635;DHT22;8431;52.458;9.998;2024-01-15T16:56:15;1.00;99.00
16635;DHT22;8431;52.458;9.998;2024-01-15T16:58:42;0.90;99.10
16635;DHT22;8431;52.458;9.998;2024-01-15T17:01:09;1.00;99.00
16635;DHT22;8431;52.458;9.998;2024-01-15T17:03:36;1.00;99.20
16635;DHT22;8431;52.458;9.998;2024-01-15T17:06:06;1.00;99.10
16635;DHT22;8431;52.458;9.998;2024-01-15T17:08:33;1.00;98.90
16635;DHT22;8431;52.458;9.998;2024-01-15T17:11:01;1.00;99.10
16635;DHT22;8431;52.458;9.998;2024-01-15T17:13:28;1.00;98.70
16635;DHT22;8431;52.458;9.998;2024-01-15T17:15:55;0.90;99.20
16635;DHT22;8431;52.458;9.998;2024-01-15T17:18:21;1.00;99.00
16635;DHT22;8431;52.458;9.998;2024-01-15T17:20:48;1.00;98.80
16635;DHT22;8431;52.458;9.998;2024-01-15T17:23:15;1.00;98.70
16635;DHT22;8431;52.458;9.998;2024-01-15T17:25:43;1.00;98.70
16635;DHT22;8431;52.458;9.998;2024-01-15T17:28:11;1.00;98.70
16635;DHT22;8431;52.458;9.998;2024-01-15T17:30:38;1.00;98.40
16635;DHT22;8431;52.458;9.998;2024-01-15T17:33:05;1.00;98.30
16635;DHT22;8431;52.458;9.998;2024-01-15T17:35:32;1.00;98.20
16635;DHT22;8431;52.458;9.998;2024-01-15T17:37:58;1.00;98.30